Pensacola, FL

8:41 PM CDT on May 24, 2015 (GMT -0500)
Pensacola Naval Air Station | | Change Station
CLOSE
Current Station
Airport
Location: Pensacola NAS,
Elevation: 30 ft
Nearby Weather Stations
Active Advisory: Coastal Hazard Statement

Elev 30 ft 30.36 °N, 87.32 °W | Updated 9 minutes ago

Mostly Cloudy
Mostly Cloudy
80 °F
Feels Like 84 °F
N
15
Wind Variable Wind from SE
Gusts 24 mph

Today
High -- | Low -- °F
--% Chance of Precip.
Yesterday
High -- | Low -- °F
Precip. -- in
5:50 AM 7:41 PM
Waxing Crescent, 44% visible
Pressure 30.11 in
Visibility 7.0 miles
Clouds Mostly Cloudy 1900 ft
Mostly Cloudy 9500 ft
Heat Index 84 °F
Dew Point 74 °F
Humidity 81%
Rainfall 0.00 in
Snow Depth Not available.
UV 0 out of 12
Pollen 5.10 out of 12
Air Quality Not available.
Flu Activity Sporadic
SPECI KNPA 250132Z 14013G21KT 7SM BKN019 BKN095 27/23 A3011 RMK AO2 T02670233 $

More Conditions Fewer Conditions

Pressure 30.11 in
Visibility 7.0 miles
Clouds Mostly Cloudy 1900 ft
Mostly Cloudy 9500 ft
Heat Index 84 °F
Dew Point 74 °F
Humidity 81%
Rainfall 0.00 in
Snow Depth Not available.
UV 0 out of 12
Pollen 5.10 out of 12
Air Quality Not available.
Flu Activity Sporadic
SPECI KNPA 250132Z 14013G21KT 7SM BKN019 BKN095 27/23 A3011 RMK AO2 T02670233 $

More Conditions Fewer Conditions

10-Day Weather Forecast

Almanac

Astronomy

May. 24, 2015 Rise Set
Actual Time
Civil Twilight
Nautical Twilight
Astronomical Twilight
Moon
Length of Visible Light
Length of Day
Tomorrow will be .
, % of the Moon is Illuminated

Today's Extremes

State Highs State Lows

Community

WunderPhotos

Upload Photos

1,823,918 photos uploaded!

WunderBlogs® & News

Nearby

Air Quality

  Air Quality AQ Index Pollutant
Not available.

Snow Depth

Station Depth Elevation

Earthquake Activity

City Distance Mag. Time & Date
Minimum magnitude displayed is 2.5.

Coastal Water Temperatures

Place Temperature

Stations

Nearby Weather Stations

Station Location Temp. Windchill Dew Point Humidity Wind Precip. Elev Updated Type
                   
Coastal Hazard Statement
Statement as of 3:43 PM CDT on May 24, 2015

... High rip current risk remains in effect through Tuesday
afternoon...

* timing... from this morning through Tuesday afternoon.

* Impacts... frequent life-threatening rip currents are expected.
The surf will be dangerous for all levels of swimmers.

Precautionary/preparedness actions...

There is a high risk of rip currents.

Rip currents are life-threatening to anyone entering the surf. If
you become caught in a rip current... Yell and wave your arms for
help and remain calm. Do not exhaust yourself and stay afloat
while waiting for help. If you have to swim out of a rip
current... swim parallel to shore and back toward the beach when
possible. Do not attempt to swim directly against a rip current
as you will tire quickly.